Pagina principale
METAR-TAF:

METAR-TAF

Aeroporti :

Kerman, Iran

latitudine: 30-15N, longitudine: 056-58E, altezza: 1748 m

Osservazione

Il bollettino è stato emesso 9 minuti fa, alle 15:00 UTC
Vento 12 kt da est/nord-est
Temperature 32°C
Umidità 8%
Pressione 1018 hPa
Visibilità 10 km o più
nessuna nube inferiore a 1500 m e nessun cumulonembo

METAR: OIKK 051500Z 06012KT CAVOK 32/M07 Q1018 A3006

Ora: 19:39 (15:09 UTC)

Previsione

Il bollettino è stato emesso 3 ore e 54 minuti fa, alle 11:15 UTC
Previsione valida dal 05 alle 12 UTC al 06 alle 18 UTC
Vento 4 kt da ovest/sud-ovest
Visibilità: 8000 m
Poco nuvoloso ad un'altezza di 4000 ft
Temporaneamente
dal 05 alle 12 UTC al 05 alle 15 UTC
Vento 14 kt da nord-est
Temporaneamente
dal 06 alle 11 UTC al 06 alle 15 UTC
Vento 12 kt da est

TAF: OIKK 051115Z 0512/0618 24004KT 8000 FEW040 TEMPO 0512/0515 05014KT TEMPO 0611/0615 08012KT

Osservazioni e previsioni meteorologiche di più di 4000 aeroporti (messaggi METAR e TAF).

Le stazioni disponibili sono rappresentate dai dischi gialli e rossi sulla carta.

Puntare il mouse per vedere il nome della stazione.

Clicca sopra per visualizzare le osservazioni e previsioni meteorologiche.

Per cambiare la mappa : fare clic sui pulsanti verdi con una croce nera per ingrandire, il pulsante verde con un trattino per diminuire, o sulla freccia verde per le mappe adiacenti.


METAR-TAF: